Antrim, United Kingdom
Current Conditions -  °F | °C
As of 9:50 AM on Friday 28 Nov 2014 (Local Time) from EGAA Reporting Station
Broken Clouds Broken Clouds  
Wind Chill: 43°   Ceiling: 2200
Heat Index: 48°   Visibility: 6mi
Dew Point: 46°   Wind: 13mph
Humidity: 93%   Direction: 100°E
Pressure: 29.68"   Gusts: NA
Location:  54.7°N, 6.2°W
Report Text: EGAA 280950Z 10011KT 9999 SCT017 BKN022 09/08 Q1005
Loading
Personal Weather Stations






























Interactive Weather Map New forecast layout! Learn more

10-Day Weather Forecast

Advertisements
Track Severe Weather on mobile